createdAt,value
2023-02-04T00:00:53.132Z,3.65
2023-02-04T00:03:20.026Z,3.78
2023-02-04T00:05:48.347Z,4.20
2023-02-04T00:08:15.273Z,4.47
2023-02-04T00:10:42.004Z,3.78
2023-02-04T00:13:08.785Z,3.75
2023-02-04T00:15:35.551Z,3.92
2023-02-04T00:18:02.265Z,3.60
2023-02-04T00:20:29.407Z,3.50
2023-02-04T00:22:57.533Z,3.17
2023-02-04T00:25:24.571Z,4.50
2023-02-04T00:27:51.274Z,3.25
2023-02-04T00:30:18.104Z,4.53
2023-02-04T00:32:44.807Z,3.80
2023-02-04T00:35:11.525Z,3.20
2023-02-04T00:37:38.443Z,4.03
2023-02-04T00:40:05.479Z,3.45
2023-02-04T00:42:32.248Z,2.88
2023-02-04T00:44:59.146Z,3.20
2023-02-04T00:47:25.829Z,3.40
2023-02-04T00:49:53.718Z,3.10
2023-02-04T00:52:20.509Z,3.17
2023-02-04T00:54:47.532Z,3.13
2023-02-04T00:57:14.240Z,3.38
2023-02-04T00:59:42.386Z,3.38
2023-02-04T01:02:14.003Z,3.92
2023-02-04T01:04:40.764Z,3.28
2023-02-04T01:07:07.551Z,3.38
2023-02-04T01:09:34.345Z,3.90
2023-02-04T01:12:02.623Z,3.22
2023-02-04T01:14:30.380Z,3.03
2023-02-04T01:16:57.283Z,3.35
2023-02-04T01:19:23.985Z,3.25
2023-02-04T01:21:50.723Z,3.38
2023-02-04T01:24:17.550Z,2.85
2023-02-04T01:26:45.911Z,3.25
2023-02-04T01:29:12.650Z,3.22
2023-02-04T01:31:40.686Z,3.60
2023-02-04T01:34:07.505Z,3.53
2023-02-04T01:36:35.366Z,3.50
2023-02-04T01:39:03.418Z,3.22
2023-02-04T01:41:33.231Z,2.50
2023-02-04T01:44:00.036Z,3.00
2023-02-04T01:46:27.171Z,2.90
2023-02-04T01:48:54.266Z,2.97
2023-02-04T01:51:30.433Z,2.70
2023-02-04T01:53:57.327Z,3.20
2023-02-04T01:56:28.726Z,3.47
2023-02-04T01:58:58.250Z,2.90
2023-02-04T02:01:34.464Z,2.92
2023-02-04T02:04:02.044Z,3.15
2023-02-04T02:06:29.573Z,3.55
2023-02-04T02:08:58.322Z,3.05
2023-02-04T02:11:27.669Z,3.42
2023-02-04T02:13:54.539Z,3.15
2023-02-04T02:16:21.617Z,2.90
2023-02-04T02:18:49.294Z,3.65
2023-02-04T02:21:21.762Z,3.20
2023-02-04T02:24:01.134Z,3.55
2023-02-04T02:26:28.375Z,3.42
2023-02-04T02:28:56.671Z,3.17
2023-02-04T02:31:24.021Z,4.22
2023-02-04T02:33:53.843Z,3.88
2023-02-04T02:36:22.876Z,3.88
2023-02-04T02:38:52.950Z,3.30
2023-02-04T02:41:19.762Z,3.70
2023-02-04T02:43:46.788Z,3.95
2023-02-04T02:46:13.764Z,3.20
2023-02-04T02:48:41.561Z,3.75
2023-02-04T02:51:08.475Z,3.78
2023-02-04T02:53:36.430Z,3.25
2023-02-04T02:56:04.770Z,4.00
2023-02-04T02:58:34.538Z,3.50
2023-02-04T03:01:05.687Z,4.88
2023-02-04T03:03:52.242Z,3.40
2023-02-04T03:06:26.241Z,3.95
2023-02-04T03:08:56.024Z,3.60
2023-02-04T03:11:24.054Z,4.43
2023-02-04T03:13:52.943Z,4.63
2023-02-04T03:16:21.506Z,4.65
2023-02-04T03:18:50.883Z,4.60
2023-02-04T03:21:17.814Z,4.35
2023-02-04T03:23:44.673Z,4.13
2023-02-04T03:26:11.449Z,4.32
2023-02-04T03:28:42.696Z,4.13
2023-02-04T03:31:09.661Z,3.88
2023-02-04T03:33:36.464Z,5.10
2023-02-04T03:36:03.448Z,2.95
2023-02-04T03:38:31.317Z,3.60
2023-02-04T03:40:58.260Z,3.38
2023-02-04T03:43:25.084Z,3.65
2023-02-04T03:45:52.898Z,3.15
2023-02-04T03:48:19.725Z,3.25
2023-02-04T03:50:46.809Z,3.13
2023-02-04T03:53:13.725Z,2.92
2023-02-04T03:55:40.587Z,3.30
2023-02-04T03:58:07.238Z,3.20
2023-02-04T04:00:35.700Z,3.83
2023-02-04T04:03:02.447Z,3.97
2023-02-04T04:05:29.296Z,3.45
2023-02-04T04:07:56.250Z,3.53
2023-02-04T04:10:23.144Z,3.83
2023-02-04T04:12:50.031Z,3.95
2023-02-04T04:15:17.900Z,3.88
2023-02-04T04:17:46.063Z,3.47
2023-02-04T04:20:13.468Z,3.00
2023-02-04T04:22:40.243Z,3.45
2023-02-04T04:25:07.946Z,2.97
2023-02-04T04:27:34.755Z,3.28
2023-02-04T04:30:01.595Z,3.50
2023-02-04T04:32:30.930Z,4.18
2023-02-04T04:34:57.642Z,4.07
2023-02-04T04:37:24.359Z,3.53
2023-02-04T04:39:52.102Z,4.22
2023-02-04T04:42:20.492Z,3.53
2023-02-04T04:44:49.178Z,3.88
2023-02-04T04:47:16.221Z,3.88
2023-02-04T04:49:42.961Z,3.13
2023-02-04T04:52:11.004Z,3.22
2023-02-04T04:54:37.867Z,3.58
2023-02-04T04:57:07.607Z,3.63
2023-02-04T04:59:34.349Z,4.75
2023-02-04T05:02:01.045Z,4.18
2023-02-04T05:04:27.991Z,4.07
2023-02-04T05:06:55.936Z,4.55
2023-02-04T05:09:23.195Z,3.55
2023-02-04T05:11:49.907Z,4.53
2023-02-04T05:14:16.619Z,3.70
2023-02-04T05:16:44.301Z,3.88
2023-02-04T05:19:10.982Z,4.03
2023-02-04T05:21:38.116Z,3.80
2023-02-04T05:24:06.589Z,4.32
2023-02-04T05:26:33.526Z,3.70
2023-02-04T05:29:03.653Z,4.38
2023-02-04T05:31:31.911Z,3.92
2023-02-04T05:33:58.726Z,3.70
2023-02-04T05:36:25.759Z,4.43
2023-02-04T05:38:52.537Z,5.15
2023-02-04T05:41:19.312Z,3.55
2023-02-04T05:43:46.073Z,4.15
2023-02-04T05:46:14.142Z,4.30
2023-02-04T05:48:43.498Z,4.53
2023-02-04T05:51:10.190Z,3.90
2023-02-04T05:53:36.906Z,4.25
2023-02-04T05:56:03.741Z,3.88
2023-02-04T05:58:33.620Z,4.20
2023-02-04T06:01:04.209Z,4.25
2023-02-04T06:03:31.769Z,4.32
2023-02-04T06:05:58.562Z,3.72
2023-02-04T06:08:26.838Z,4.68
2023-02-04T06:10:53.826Z,3.88
2023-02-04T06:13:20.759Z,4.82
2023-02-04T06:15:47.574Z,4.45
2023-02-04T06:18:14.298Z,4.82
2023-02-04T06:20:41.091Z,4.60
2023-02-04T06:23:07.867Z,4.95
2023-02-04T06:25:39.708Z,4.55
2023-02-04T06:28:07.986Z,4.35
2023-02-04T06:30:35.784Z,4.90
2023-02-04T06:33:04.217Z,4.95
2023-02-04T06:35:32.060Z,4.60
2023-02-04T06:37:58.969Z,4.75
2023-02-04T06:40:25.867Z,4.47
2023-02-04T06:42:54.308Z,4.53
2023-02-04T06:45:21.104Z,5.50
2023-02-04T06:47:48.098Z,4.80
2023-02-04T06:50:18.800Z,5.25
2023-02-04T06:52:49.520Z,4.95
2023-02-04T06:55:17.616Z,4.38
2023-02-04T06:57:45.425Z,4.88
2023-02-04T07:00:12.807Z,5.10
2023-02-04T07:02:42.636Z,5.30
2023-02-04T07:05:09.401Z,4.80
2023-02-04T07:07:36.334Z,5.65
2023-02-04T07:10:03.993Z,4.95
2023-02-04T07:12:30.902Z,4.68
2023-02-04T07:14:59.150Z,5.25
2023-02-04T07:17:28.170Z,4.35
2023-02-04T07:19:57.855Z,5.40
2023-02-04T07:22:24.579Z,5.30
2023-02-04T07:24:51.370Z,5.10
2023-02-04T07:27:18.264Z,4.57
2023-02-04T07:29:44.996Z,4.97
2023-02-04T07:32:12.709Z,4.95
2023-02-04T07:34:40.986Z,5.10
2023-02-04T07:37:07.760Z,5.35
2023-02-04T07:39:35.824Z,4.55
2023-02-04T07:42:04.452Z,5.05
2023-02-04T07:44:31.849Z,5.63
2023-02-04T07:47:00.837Z,6.35
2023-02-04T07:49:28.814Z,5.28
2023-02-04T07:51:55.619Z,5.03
2023-02-04T07:54:22.373Z,5.28
2023-02-04T07:56:49.097Z,5.80
2023-02-04T07:59:15.813Z,5.00
2023-02-04T08:01:42.560Z,5.57
2023-02-04T08:04:09.369Z,5.88
2023-02-04T08:06:36.307Z,5.38
2023-02-04T08:09:03.318Z,5.57
2023-02-04T08:11:31.020Z,6.32
2023-02-04T08:13:57.768Z,5.32
2023-02-04T08:16:25.837Z,6.53
2023-02-04T08:18:52.667Z,7.32
2023-02-04T08:21:21.833Z,6.85
2023-02-04T08:23:48.974Z,6.47
2023-02-04T08:26:15.689Z,5.75
2023-02-04T08:28:43.554Z,6.25
2023-02-04T08:31:13.448Z,6.30
2023-02-04T08:33:40.210Z,6.07
2023-02-04T08:36:07.692Z,6.35
2023-02-04T08:38:34.659Z,6.47
2023-02-04T08:41:01.973Z,6.85
2023-02-04T08:43:28.690Z,6.25
2023-02-04T08:45:55.410Z,6.97
2023-02-04T08:48:22.195Z,7.13
2023-02-04T08:50:48.919Z,6.53
2023-02-04T08:53:15.794Z,7.55
2023-02-04T08:55:44.068Z,8.15
2023-02-04T08:58:11.508Z,7.85
2023-02-04T09:00:41.634Z,7.95
2023-02-04T09:03:08.497Z,7.03
2023-02-04T09:05:35.259Z,6.90
2023-02-04T09:08:03.030Z,7.20
2023-02-04T09:10:30.006Z,7.97
2023-02-04T09:12:58.192Z,6.82
2023-02-04T09:15:25.206Z,7.38
2023-02-04T09:17:55.691Z,8.60
2023-02-04T09:20:22.402Z,7.15
2023-02-04T09:22:50.331Z,7.65
2023-02-04T09:25:17.506Z,9.05
2023-02-04T09:27:45.367Z,9.05
2023-02-04T09:30:14.969Z,9.15
2023-02-04T09:32:42.031Z,10.60
2023-02-04T09:35:11.205Z,8.32
2023-02-04T09:37:38.146Z,9.18
2023-02-04T09:40:05.212Z,8.20
2023-02-04T09:42:32.717Z,10.60
2023-02-04T09:45:03.492Z,10.07
2023-02-04T09:47:31.186Z,10.13
2023-02-04T09:49:58.553Z,8.25
2023-02-04T09:52:28.367Z,10.50
2023-02-04T09:54:55.400Z,10.02
2023-02-04T09:57:23.475Z,10.77
2023-02-04T09:59:51.913Z,7.25
2023-02-04T10:02:26.734Z,6.57
2023-02-04T10:04:57.847Z,10.23
2023-02-04T10:07:26.853Z,11.80
2023-02-04T10:09:54.441Z,11.27
2023-02-04T10:12:22.441Z,11.50
2023-02-04T10:14:52.617Z,11.60
2023-02-04T10:17:22.353Z,10.85
2023-02-04T10:19:49.790Z,9.40
2023-02-04T10:22:19.757Z,11.13
2023-02-04T10:24:47.135Z,12.80
2023-02-04T10:27:19.694Z,12.88
2023-02-04T10:29:57.612Z,12.35
2023-02-04T10:32:33.538Z,12.45
2023-02-04T10:35:02.345Z,12.07
2023-02-04T10:37:31.058Z,10.63
2023-02-04T10:39:57.954Z,12.40
2023-02-04T10:42:29.963Z,11.77
2023-02-04T10:44:57.628Z,12.10
2023-02-04T10:47:26.410Z,12.70
2023-02-04T10:50:23.211Z,12.82
2023-02-04T10:53:17.889Z,14.23
2023-02-04T10:55:47.687Z,14.00
2023-02-04T10:58:20.440Z,13.80
2023-02-04T11:00:48.415Z,14.63
2023-02-04T11:03:23.500Z,14.23
2023-02-04T11:05:51.520Z,14.07
2023-02-04T11:08:28.175Z,14.27
2023-02-04T11:10:58.744Z,12.40
2023-02-04T11:13:39.744Z,13.20
2023-02-04T11:16:19.060Z,11.55
2023-02-04T11:18:51.990Z,13.25
2023-02-04T11:21:32.994Z,12.68
2023-02-04T11:24:11.619Z,12.32
2023-02-04T11:26:43.860Z,13.77
2023-02-04T11:29:16.448Z,12.32
2023-02-04T11:31:48.965Z,10.98
2023-02-04T11:34:15.685Z,13.43
2023-02-04T11:37:04.866Z,15.15
2023-02-04T11:39:38.771Z,12.55
2023-02-04T11:42:14.465Z,11.18
2023-02-04T11:44:41.546Z,10.82
2023-02-04T11:47:09.561Z,10.25
2023-02-04T11:49:36.940Z,11.43
2023-02-04T11:52:13.265Z,10.15
2023-02-04T11:54:40.613Z,9.82
2023-02-04T11:57:11.018Z,10.43
2023-02-04T11:59:37.792Z,10.88
2023-02-04T12:02:19.179Z,12.27
2023-02-04T12:04:58.224Z,10.52
2023-02-04T12:07:30.314Z,8.20
2023-02-04T12:09:57.994Z,7.28
2023-02-04T12:12:30.979Z,7.05
2023-02-04T12:15:02.290Z,7.38
2023-02-04T12:17:30.379Z,8.55
2023-02-04T12:19:57.071Z,8.90
2023-02-04T12:22:23.978Z,8.80
2023-02-04T12:24:52.431Z,9.75
2023-02-04T12:27:21.343Z,9.18
2023-02-04T12:29:48.075Z,10.77
2023-02-04T12:32:17.459Z,9.32
2023-02-04T12:34:44.368Z,9.35
2023-02-04T12:37:11.264Z,8.85
2023-02-04T12:39:37.997Z,8.82
2023-02-04T12:42:06.376Z,10.02
2023-02-04T12:44:35.423Z,10.00
2023-02-04T12:47:02.217Z,9.10
2023-02-04T12:49:28.896Z,8.90
2023-02-04T12:51:59.281Z,8.27
2023-02-04T12:54:27.035Z,7.28
2023-02-04T12:56:58.065Z,7.97
2023-02-04T12:59:25.909Z,7.80
2023-02-04T13:01:54.084Z,7.75
2023-02-04T13:04:21.222Z,8.93
2023-02-04T13:06:47.988Z,7.85
2023-02-04T13:09:14.859Z,7.63
2023-02-04T13:11:45.833Z,7.35
2023-02-04T13:14:22.656Z,8.52
2023-02-04T13:16:52.180Z,7.55
2023-02-04T13:19:18.811Z,7.43
2023-02-04T13:21:45.477Z,7.03
2023-02-04T13:24:12.182Z,7.63
2023-02-04T13:26:39.421Z,8.07
2023-02-04T13:29:06.525Z,8.20
2023-02-04T13:31:34.440Z,8.70
2023-02-04T13:34:01.390Z,8.60
2023-02-04T13:36:30.367Z,8.02
2023-02-04T13:39:02.516Z,7.88
2023-02-04T13:41:29.475Z,9.07
2023-02-04T13:43:57.332Z,8.45
2023-02-04T13:46:25.261Z,8.60
2023-02-04T13:48:55.579Z,7.45
2023-02-04T13:51:22.343Z,8.75
2023-02-04T13:53:49.133Z,8.35
2023-02-04T13:56:19.367Z,7.32
2023-02-04T14:01:27.612Z,6.90
2023-02-04T14:03:54.611Z,6.68
2023-02-04T14:06:22.070Z,6.88
2023-02-04T14:08:48.958Z,6.90
2023-02-04T14:11:16.690Z,6.72
2023-02-04T14:13:49.546Z,5.85
2023-02-04T14:16:16.311Z,6.40
2023-02-04T14:18:43.051Z,7.10
2023-02-04T14:21:16.784Z,6.65
2023-02-04T14:23:43.548Z,7.28
2023-02-04T14:26:11.032Z,7.82
2023-02-04T14:28:44.034Z,7.72
2023-02-04T14:31:10.956Z,7.05
2023-02-04T14:33:40.351Z,6.70
2023-02-04T14:36:07.480Z,7.47
2023-02-04T14:38:34.335Z,7.57
2023-02-04T14:41:03.907Z,7.53
2023-02-04T14:43:37.114Z,7.55
2023-02-04T14:46:06.015Z,7.17
2023-02-04T14:48:33.299Z,7.35
2023-02-04T14:51:01.007Z,7.30
2023-02-04T14:53:29.429Z,6.93
2023-02-04T14:55:57.481Z,7.43
2023-02-04T14:58:27.972Z,7.18
2023-02-04T15:01:00.119Z,6.90
2023-02-04T15:03:26.891Z,6.93
2023-02-04T15:05:55.001Z,6.57
2023-02-04T15:08:21.924Z,6.10
2023-02-04T15:10:48.830Z,6.25
2023-02-04T15:13:26.790Z,7.15
2023-02-04T15:15:53.592Z,6.68
2023-02-04T15:18:20.574Z,5.88
2023-02-04T15:20:47.265Z,5.95
2023-02-04T15:23:16.604Z,6.78
2023-02-04T15:25:43.438Z,6.78
2023-02-04T15:28:12.183Z,6.07
2023-02-04T15:30:39.504Z,6.07
2023-02-04T15:33:06.322Z,5.95
2023-02-04T15:35:33.318Z,6.57
2023-02-04T15:38:05.622Z,5.97
2023-02-04T15:40:32.541Z,7.45
2023-02-04T15:43:06.396Z,5.50
2023-02-04T15:45:33.056Z,5.95
2023-02-04T15:48:00.991Z,5.82
2023-02-04T15:50:31.384Z,6.90
2023-02-04T15:52:58.793Z,6.75
2023-02-04T15:55:25.533Z,6.78
2023-02-04T15:57:52.313Z,8.48
2023-02-04T16:00:27.908Z,7.72
2023-02-04T16:02:59.443Z,6.20
2023-02-04T16:05:26.217Z,6.60
2023-02-04T16:08:02.984Z,6.82
2023-02-04T16:10:29.878Z,6.90
2023-02-04T16:12:59.938Z,7.15
2023-02-04T16:15:26.969Z,6.05
2023-02-04T16:17:58.016Z,6.55
2023-02-04T16:20:25.815Z,6.30
2023-02-04T16:22:53.382Z,7.00
2023-02-04T16:25:21.471Z,6.60
2023-02-04T16:27:48.216Z,6.80
2023-02-04T16:30:15.788Z,7.13
2023-02-04T16:32:44.599Z,6.93
2023-02-04T16:35:11.306Z,6.63
2023-02-04T16:37:38.128Z,7.28
2023-02-04T16:40:07.392Z,8.55
2023-02-04T16:42:36.130Z,8.32
2023-02-04T16:45:04.164Z,10.00
2023-02-04T16:47:33.713Z,10.55
2023-02-04T16:50:01.817Z,9.50
2023-02-04T16:52:36.302Z,9.48
2023-02-04T16:55:03.015Z,8.38
2023-02-04T16:57:29.676Z,12.50
2023-02-04T16:59:56.802Z,14.63
2023-02-04T17:02:24.862Z,13.15
2023-02-04T17:04:54.450Z,12.68
2023-02-04T17:07:28.580Z,12.73
2023-02-04T17:09:56.198Z,11.30
2023-02-04T17:12:25.322Z,10.93
2023-02-04T17:14:54.263Z,10.65
2023-02-04T17:17:22.090Z,9.00
2023-02-04T17:19:48.759Z,8.13
2023-02-04T17:22:19.454Z,7.55
2023-02-04T17:24:48.399Z,7.88
2023-02-04T17:27:15.893Z,6.65
2023-02-04T17:29:45.842Z,8.43
2023-02-04T17:32:12.679Z,8.18
2023-02-04T17:34:41.872Z,6.85
2023-02-04T17:37:08.569Z,7.18
2023-02-04T17:39:35.533Z,6.85
2023-02-04T17:42:02.306Z,7.28
2023-02-04T17:44:29.011Z,6.53
2023-02-04T17:46:56.062Z,6.32
2023-02-04T17:49:23.439Z,6.00
2023-02-04T17:51:53.323Z,6.88
2023-02-04T17:54:20.016Z,6.25
2023-02-04T17:56:49.589Z,6.00
2023-02-04T17:59:18.555Z,15.50
2023-02-04T18:01:45.867Z,6.43
2023-02-04T18:04:14.107Z,7.07
2023-02-04T18:06:41.615Z,6.93
2023-02-04T18:09:18.726Z,7.03
2023-02-04T18:11:45.568Z,6.97
2023-02-04T18:14:28.218Z,7.50
2023-02-04T18:17:00.462Z,7.90
2023-02-04T18:19:41.947Z,9.65
2023-02-04T18:22:19.492Z,9.43
2023-02-04T18:24:48.875Z,7.32
2023-02-04T18:27:19.780Z,6.75
2023-02-04T18:29:49.618Z,6.32
2023-02-04T18:32:26.216Z,5.85
2023-02-04T18:34:57.941Z,4.85
2023-02-04T18:37:33.251Z,5.32
2023-02-04T18:40:09.014Z,5.63
2023-02-04T18:42:43.911Z,6.22
2023-02-04T18:45:25.058Z,5.55
2023-02-04T18:47:58.641Z,6.00
2023-02-04T18:50:31.189Z,6.57
2023-02-04T18:53:15.145Z,6.05
2023-02-04T18:55:44.416Z,7.15
2023-02-04T18:58:18.623Z,6.97
2023-02-04T19:00:52.051Z,6.88
2023-02-04T19:03:30.171Z,7.10
2023-02-04T19:06:00.797Z,6.82
2023-02-04T19:08:31.830Z,18.45
2023-02-04T19:11:00.284Z,27.80
2023-02-04T19:13:40.672Z,17.20
2023-02-04T19:16:33.610Z,9.10
2023-02-04T19:19:00.498Z,6.32
2023-02-04T19:21:33.494Z,7.07
2023-02-04T19:24:19.621Z,8.60
2023-02-04T19:26:56.692Z,9.50
2023-02-04T19:29:25.426Z,9.32
2023-02-04T19:32:01.604Z,7.65
2023-02-04T19:34:33.968Z,7.45
2023-02-04T19:37:07.015Z,6.45
2023-02-04T19:39:40.360Z,6.45
2023-02-04T19:42:32.707Z,7.25
2023-02-04T19:45:22.456Z,6.85
2023-02-04T19:47:54.658Z,7.82
2023-02-04T19:50:34.717Z,7.40
2023-02-04T19:53:04.438Z,7.07
2023-02-04T19:55:36.274Z,8.82
2023-02-04T19:58:19.172Z,7.80
2023-02-04T20:00:52.024Z,8.20
2023-02-04T20:03:30.347Z,9.15
2023-02-04T20:06:10.787Z,9.35
2023-02-04T20:08:46.316Z,9.07
2023-02-04T20:11:31.340Z,9.43
2023-02-04T20:21:11.535Z,8.48
2023-02-04T20:23:40.345Z,9.70
2023-02-04T20:26:09.223Z,9.07
2023-02-04T20:28:47.874Z,8.18
2023-02-04T20:31:26.892Z,8.43
2023-02-04T20:33:56.866Z,8.38
2023-02-04T20:36:28.999Z,8.43
2023-02-04T20:39:35.980Z,8.35
2023-02-04T20:42:24.531Z,8.52
2023-02-04T20:44:51.682Z,8.20
2023-02-04T20:47:20.959Z,9.23
2023-02-04T20:49:56.729Z,9.30
2023-02-04T20:52:43.668Z,8.80
2023-02-04T20:55:33.967Z,9.40
2023-02-04T20:58:21.650Z,11.18
2023-02-04T21:00:53.930Z,11.20
2023-02-04T21:03:22.524Z,9.68
2023-02-04T21:05:51.288Z,10.68
2023-02-04T21:08:20.858Z,10.10
2023-02-04T21:10:50.609Z,12.55
2023-02-04T21:13:17.347Z,12.68
2023-02-04T21:15:44.126Z,12.85
2023-02-04T21:18:10.997Z,14.43
2023-02-04T21:20:37.823Z,15.95
2023-02-04T21:23:05.303Z,13.50
2023-02-04T21:25:32.666Z,11.13
2023-02-04T21:28:01.499Z,8.38
2023-02-04T21:30:30.387Z,7.97
2023-02-04T21:33:02.528Z,7.50
2023-02-04T21:35:29.833Z,6.50
2023-02-04T21:38:00.413Z,7.43
2023-02-04T21:40:28.809Z,7.78
2023-02-04T21:42:55.656Z,6.90
2023-02-04T21:45:24.092Z,6.78
2023-02-04T21:47:52.362Z,6.68
2023-02-04T21:50:21.521Z,6.70
2023-02-04T21:52:49.381Z,7.35
2023-02-04T21:55:21.542Z,6.85
2023-02-04T21:57:53.650Z,28.70
2023-02-04T22:00:25.257Z,7.90
2023-02-04T22:02:53.597Z,7.07
2023-02-04T22:05:22.591Z,7.47
2023-02-04T22:07:50.654Z,7.15
2023-02-04T22:10:23.453Z,8.00
2023-02-04T22:12:50.560Z,7.85
2023-02-04T22:15:18.176Z,7.72
2023-02-04T22:17:45.773Z,8.18
2023-02-04T22:20:15.830Z,7.43
2023-02-04T22:22:45.649Z,17.77
2023-02-04T22:25:14.863Z,7.95
2023-02-04T22:27:41.907Z,8.05
2023-02-04T22:30:12.458Z,7.53
2023-02-04T22:32:39.676Z,5.65
2023-02-04T22:35:08.140Z,7.38
2023-02-04T22:37:34.830Z,7.80
2023-02-04T22:40:01.755Z,8.15
2023-02-04T22:42:29.796Z,6.93
2023-02-04T22:44:58.064Z,7.55
2023-02-04T22:47:26.763Z,7.32
2023-02-04T22:49:53.520Z,7.50
2023-02-04T22:52:20.357Z,7.80
2023-02-04T22:54:50.902Z,7.88
2023-02-04T22:57:17.555Z,7.95
2023-02-04T22:59:44.246Z,8.40
2023-02-04T23:02:13.925Z,7.43
2023-02-04T23:04:43.965Z,7.95
2023-02-04T23:07:12.281Z,7.82
2023-02-04T23:09:39.474Z,7.57
2023-02-04T23:12:17.248Z,7.45
2023-02-04T23:14:46.476Z,7.70
2023-02-04T23:17:16.621Z,8.50
2023-02-04T23:19:47.128Z,7.22
2023-02-04T23:22:14.693Z,8.55
2023-02-04T23:24:42.582Z,8.40
2023-02-04T23:27:11.466Z,8.68
2023-02-04T23:29:39.745Z,7.28
2023-02-04T23:32:08.116Z,7.63
2023-02-04T23:34:35.555Z,7.75
2023-02-04T23:37:03.573Z,7.70
2023-02-04T23:39:31.037Z,7.63
2023-02-04T23:41:57.884Z,7.50
2023-02-04T23:44:27.946Z,8.30
2023-02-04T23:46:54.839Z,7.63
2023-02-04T23:49:21.785Z,7.15
2023-02-04T23:51:49.496Z,7.50
2023-02-04T23:54:16.188Z,8.55
2023-02-04T23:56:42.926Z,8.77
2023-02-04T23:59:10.862Z,7.78
